Time;durP1;ratioP1;P1;durP2;ratioP2;P2;SDS_P1;SDS_P2;PMS_P1;PMS_P2;Temp;Humidity;BMP_temperature;BMP_pressure;BME280_temperature;BME280_humidity;BME280_pressure;Samples;Min_cycle;Max_cycle;Signal;HPM_P1;HPM_P2
2021/08/26 00:00:00;;;;;;;5.40;1.25;;;16.20;99.90;;;;;;5012469;28;20084;-76
2021/08/26 00:07:58;;;;;;;8.30;1.58;;;16.10;99.90;;;;;;5012336;28;20600;-76
2021/08/26 00:10:24;;;;;;;6.50;1.80;;;16.00;99.90;;;;;;5012657;28;20045;-74
2021/08/26 00:12:51;;;;;;;3.95;1.70;;;16.00;99.90;;;;;;5012469;28;20014;-76
2021/08/26 00:15:17;;;;;;;4.07;2.00;;;16.00;99.90;;;;;;5012143;28;20033;-74
2021/08/26 00:17:45;;;;;;;3.85;1.65;;;15.90;99.90;;;;;;5012292;28;20025;-74
2021/08/26 00:20:11;;;;;;;3.45;1.70;;;16.00;99.90;;;;;;5012567;28;20105;-75
2021/08/26 00:22:36;;;;;;;5.13;2.10;;;16.00;99.90;;;;;;5011437;28;20061;-75
2021/08/26 00:25:03;;;;;;;2.45;1.88;;;16.00;99.90;;;;;;5012661;28;20025;-74
2021/08/26 00:27:29;;;;;;;8.50;2.15;;;16.00;99.90;;;;;;5012144;28;20032;-73
2021/08/26 00:29:54;;;;;;;7.40;2.47;;;15.90;99.90;;;;;;5011853;28;20448;-75
2021/08/26 00:32:20;;;;;;;7.53;2.17;;;15.90;99.90;;;;;;5012484;28;20034;-75
2021/08/26 00:34:46;;;;;;;5.68;2.33;;;15.90;99.90;;;;;;5011647;28;20026;-75
2021/08/26 00:37:11;;;;;;;8.93;1.98;;;15.80;99.90;;;;;;5011460;28;20032;-75
2021/08/26 00:39:37;;;;;;;6.88;2.72;;;15.70;99.90;;;;;;5011997;28;20030;-75
2021/08/26 00:42:03;;;;;;;6.07;2.00;;;15.70;99.90;;;;;;5012231;28;20037;-75
2021/08/26 00:44:29;;;;;;;9.35;2.30;;;15.70;99.90;;;;;;5011239;28;20037;-75
2021/08/26 00:46:55;;;;;;;7.85;2.80;;;15.70;99.90;;;;;;5011987;28;20042;-77
2021/08/26 00:49:20;;;;;;;4.63;2.70;;;15.60;99.90;;;;;;5011753;28;20134;-76
2021/08/26 00:51:46;;;;;;;8.50;2.50;;;15.70;99.90;;;;;;5011984;28;20022;-76
2021/08/26 00:54:13;;;;;;;6.18;2.55;;;15.60;99.90;;;;;;5012571;28;20448;-76
2021/08/26 00:56:39;;;;;;;7.15;2.50;;;15.70;99.90;;;;;;5011400;28;20105;-76
2021/08/26 00:59:06;;;;;;;13.23;3.22;;;15.70;99.90;;;;;;5011906;28;20168;-76
2021/08/26 01:01:52;;;;;;;11.45;3.25;;;15.70;99.90;;;;;;5011849;28;20044;-76
2021/08/26 01:04:49;;;;;;;12.88;3.00;;;15.70;99.90;;;;;;5011453;28;20034;-76
2021/08/26 01:07:35;;;;;;;6.88;2.38;;;15.70;99.90;;;;;;5012067;28;20431;-75
2021/08/26 01:10:09;;;;;;;6.97;2.95;;;15.70;99.90;;;;;;5012000;28;20034;-76
2021/08/26 01:12:38;;;;;;;10.75;2.60;;;15.70;99.90;;;;;;5009649;28;20018;-76
2021/08/26 01:15:05;;;;;;;6.10;2.50;;;15.80;99.90;;;;;;5013254;28;20026;-76
2021/08/26 01:17:31;;;;;;;8.95;3.40;;;15.70;99.90;;;;;;5014747;28;20104;-76
2021/08/26 01:19:59;;;;;;;9.35;2.58;;;15.80;99.90;;;;;;5015850;28;20053;-76
2021/08/26 01:22:26;;;;;;;8.60;2.63;;;15.70;99.90;;;;;;5015501;28;20037;-76
2021/08/26 01:24:58;;;;;;;9.18;2.88;;;15.70;99.90;;;;;;5014696;28;20056;-76
2021/08/26 01:27:28;;;;;;;9.70;2.72;;;15.80;99.90;;;;;;5015637;28;20105;-78
2021/08/26 01:29:55;;;;;;;12.57;2.20;;;15.70;99.90;;;;;;5015524;28;20026;-75
2021/08/26 01:32:22;;;;;;;9.02;3.42;;;15.70;99.90;;;;;;5014859;28;20100;-74
2021/08/26 01:34:52;;;;;;;12.13;3.20;;;15.70;99.90;;;;;;5014879;28;20029;-77
2021/08/26 01:37:19;;;;;;;8.88;3.25;;;16.10;99.90;;;;;;5014428;28;20347;-76
2021/08/26 01:39:52;;;;;;;13.95;3.70;;;15.70;99.90;;;;;;5014141;28;20030;-76
2021/08/26 01:42:23;;;;;;;7.25;3.55;;;15.60;99.90;;;;;;5015463;28;20033;-77
2021/08/26 01:44:48;;;;;;;13.80;3.80;;;15.60;99.90;;;;;;5015156;28;20049;-76
2021/08/26 01:47:16;;;;;;;9.25;3.10;;;15.60;99.90;;;;;;5014184;28;20504;-76
2021/08/26 01:49:49;;;;;;;15.52;3.60;;;15.60;99.90;;;;;;5014724;28;20110;-75
2021/08/26 01:52:17;;;;;;;13.68;4.15;;;15.60;99.90;;;;;;5014778;28;20088;-75
2021/08/26 01:54:56;;;;;;;16.45;3.35;;;15.60;99.90;;;;;;5014110;28;20504;-75
2021/08/26 01:57:26;;;;;;;13.73;3.27;;;15.60;99.90;;;;;;5015001;28;20026;-75
2021/08/26 01:59:53;;;;;;;8.30;3.35;;;15.60;99.90;;;;;;5014444;28;20026;-76
2021/08/26 02:02:18;;;;;;;9.52;3.33;;;15.60;99.90;;;;;;5014630;28;20030;-75
2021/08/26 02:04:44;;;;;;;18.92;3.85;;;15.60;99.90;;;;;;5014651;28;20037;-75
2021/08/26 02:07:10;;;;;;;12.48;3.90;;;15.60;99.90;;;;;;5014417;28;20030;-75
2021/08/26 02:09:36;;;;;;;14.35;3.05;;;15.50;99.90;;;;;;5014665;28;20022;-76
2021/08/26 02:12:01;;;;;;;9.35;3.53;;;15.50;99.90;;;;;;5014272;28;20052;-75
2021/08/26 02:14:28;;;;;;;12.98;3.95;;;15.50;99.90;;;;;;5013586;28;20113;-76
2021/08/26 02:16:53;;;;;;;16.52;3.90;;;15.50;99.90;;;;;;5014669;28;20033;-75
2021/08/26 02:19:19;;;;;;;11.57;3.85;;;15.50;99.90;;;;;;5014830;28;20034;-76
2021/08/26 02:21:45;;;;;;;15.95;4.00;;;15.50;99.90;;;;;;5013829;28;20026;-75
2021/08/26 02:24:10;;;;;;;10.35;3.40;;;15.40;99.90;;;;;;5015428;28;20041;-76
2021/08/26 02:26:36;;;;;;;9.48;3.35;;;15.50;99.90;;;;;;5014139;28;20014;-76
2021/08/26 02:29:02;;;;;;;28.30;5.55;;;15.60;99.90;;;;;;5013733;28;20062;-74
2021/08/26 02:31:28;;;;;;;15.70;4.13;;;15.60;99.90;;;;;;5013937;28;20080;-75
2021/08/26 02:33:55;;;;;;;17.58;4.22;;;15.50;99.90;;;;;;5014544;28;20033;-77
2021/08/26 02:36:21;;;;;;;18.33;4.93;;;15.50;99.90;;;;;;5013801;28;20367;-75
2021/08/26 02:38:47;;;;;;;17.42;4.78;;;15.50;99.90;;;;;;5014096;28;20474;-74
2021/08/26 02:41:13;;;;;;;14.05;4.35;;;15.50;99.90;;;;;;5014774;28;20037;-75
2021/08/26 02:43:38;;;;;;;16.70;5.03;;;16.40;99.90;;;;;;5012872;28;20030;-75
2021/08/26 02:46:07;;;;;;;16.40;4.38;;;15.50;99.90;;;;;;5014078;28;20108;-75
2021/08/26 02:48:33;;;;;;;14.25;4.45;;;15.40;99.90;;;;;;5014069;28;20568;-76
2021/08/26 02:50:58;;;;;;;19.88;4.78;;;15.40;99.90;;;;;;5013617;28;20022;-76
2021/08/26 02:53:24;;;;;;;16.30;4.30;;;15.40;99.90;;;;;;5013894;28;20022;-76
2021/08/26 02:55:49;;;;;;;15.38;4.00;;;15.30;99.90;;;;;;5013076;28;20029;-77
2021/08/26 02:58:15;;;;;;;17.73;4.53;;;15.40;99.90;;;;;;5013740;28;20501;-76
2021/08/26 03:00:41;;;;;;;13.60;4.50;;;15.30;99.90;;;;;;5013168;28;20037;-77
2021/08/26 03:03:06;;;;;;;14.45;4.38;;;15.30;99.90;;;;;;5013145;28;20033;-77
2021/08/26 03:05:32;;;;;;;16.75;5.35;;;15.30;99.90;;;;;;5013471;28;20026;-77
2021/08/26 03:07:57;;;;;;;12.93;4.10;;;15.30;99.90;;;;;;5013610;28;20112;-77
2021/08/26 03:10:27;;;;;;;19.42;4.53;;;15.20;99.90;;;;;;5012921;28;20466;-76
2021/08/26 03:12:53;;;;;;;15.43;4.78;;;15.20;99.90;;;;;;5013710;28;20478;-76
2021/08/26 03:15:19;;;;;;;17.50;4.85;;;15.30;99.90;;;;;;5013869;28;20029;-77
2021/08/26 03:17:45;;;;;;;16.25;3.80;;;15.20;99.90;;;;;;5013126;28;20021;-76
2021/08/26 03:20:11;;;;;;;19.75;5.55;;;15.30;99.90;;;;;;5013626;28;20026;-76
2021/08/26 03:22:37;;;;;;;25.23;4.55;;;15.20;99.90;;;;;;5012878;28;20038;-77
2021/08/26 03:25:04;;;;;;;24.70;5.28;;;15.20;99.90;;;;;;5012868;28;20488;-77
2021/08/26 03:27:30;;;;;;;14.65;4.28;;;15.20;99.90;;;;;;5012868;28;20525;-75
2021/08/26 03:29:55;;;;;;;15.55;4.05;;;15.20;99.90;;;;;;5013418;28;20034;-74
2021/08/26 03:32:21;;;;;;;13.18;4.68;;;15.20;99.90;;;;;;5012666;28;20026;-77
2021/08/26 03:34:47;;;;;;;17.02;4.75;;;15.20;99.90;;;;;;5013565;28;20034;-77
2021/08/26 03:37:12;;;;;;;15.30;4.00;;;15.20;99.90;;;;;;5012528;28;20097;-76
2021/08/26 03:39:38;;;;;;;17.42;3.72;;;15.20;99.90;;;;;;5012059;28;20029;-76
2021/08/26 03:42:03;;;;;;;18.60;4.57;;;15.20;99.90;;;;;;5013259;28;20374;-76
2021/08/26 03:44:29;;;;;;;18.98;5.28;;;15.20;99.90;;;;;;5012759;28;20030;-76
2021/08/26 03:46:55;;;;;;;18.27;4.70;;;15.20;99.90;;;;;;5012147;28;20057;-76
2021/08/26 03:49:20;;;;;;;14.85;4.45;;;15.20;99.90;;;;;;5013179;28;20040;-76
2021/08/26 03:51:46;;;;;;;17.75;4.28;;;15.20;99.90;;;;;;5012531;28;20033;-76
2021/08/26 03:54:11;;;;;;;14.35;4.47;;;15.20;99.90;;;;;;5012533;28;20466;-76
2021/08/26 03:56:37;;;;;;;14.35;3.75;;;15.10;99.90;;;;;;5012615;28;20032;-76
2021/08/26 03:59:02;;;;;;;16.35;4.22;;;15.20;99.90;;;;;;5012664;28;20018;-76
2021/08/26 04:01:28;;;;;;;16.20;4.03;;;15.20;99.90;;;;;;5012220;28;20116;-77
2021/08/26 04:03:54;;;;;;;11.10;3.67;;;15.20;99.90;;;;;;5013320;28;20478;-76
2021/08/26 04:06:19;;;;;;;14.80;3.95;;;15.20;99.90;;;;;;5012217;28;20478;-76
2021/08/26 04:08:45;;;;;;;12.52;3.53;;;15.20;99.90;;;;;;5012456;28;20421;-75
2021/08/26 04:11:10;;;;;;;19.98;4.05;;;15.10;99.90;;;;;;5012857;28;20022;-76
2021/08/26 04:13:36;;;;;;;19.85;3.88;;;15.10;99.90;;;;;;5011657;28;20080;-77
2021/08/26 04:16:02;;;;;;;29.02;4.95;;;15.20;99.90;;;;;;5012708;28;20488;-75
2021/08/26 04:18:27;;;;;;;7.90;3.58;;;15.10;99.90;;;;;;5012537;28;20026;-76
2021/08/26 04:20:53;;;;;;;13.85;3.40;;;15.10;99.90;;;;;;5011915;28;20022;-75
2021/08/26 04:23:18;;;;;;;12.02;3.72;;;15.10;99.90;;;;;;5012339;28;20037;-76
2021/08/26 04:25:44;;;;;;;18.13;3.75;;;15.10;99.90;;;;;;5012119;28;20113;-76
2021/08/26 04:28:10;;;;;;;13.18;4.15;;;15.10;99.90;;;;;;5011851;28;20033;-77
2021/08/26 04:30:35;;;;;;;15.77;3.17;;;15.10;99.90;;;;;;5012292;28;20029;-77
2021/08/26 04:33:05;;;;;;;12.63;3.63;;;15.10;99.90;;;;;;5012170;28;20144;-77
2021/08/26 04:35:31;;;;;;;11.30;4.40;;;15.10;99.90;;;;;;5011898;28;20164;-76
2021/08/26 04:37:56;;;;;;;13.77;3.33;;;15.10;99.90;;;;;;5012395;28;20097;-75
2021/08/26 04:40:22;;;;;;;13.98;3.35;;;15.10;99.90;;;;;;5012251;28;20044;-75
2021/08/26 04:42:48;;;;;;;6.47;3.03;;;15.10;99.90;;;;;;5010997;28;20508;-77
2021/08/26 04:45:14;;;;;;;11.63;3.63;;;15.20;99.90;;;;;;5011872;28;20018;-76
2021/08/26 04:47:40;;;;;;;16.65;3.75;;;15.20;99.90;;;;;;5011704;28;20060;-76
2021/08/26 04:50:06;;;;;;;12.55;3.22;;;15.10;99.90;;;;;;5012630;28;20026;-77
2021/08/26 04:52:31;;;;;;;12.35;4.28;;;15.20;99.90;;;;;;5015658;28;20144;-75
2021/08/26 04:54:57;;;;;;;15.20;3.80;;;15.10;99.90;;;;;;5015886;28;20534;-75
2021/08/26 04:57:22;;;;;;;18.45;3.63;;;15.10;99.90;;;;;;5013773;28;20026;-78
2021/08/26 04:59:48;;;;;;;16.17;3.53;;;15.10;99.90;;;;;;5016062;28;20466;-77
2021/08/26 05:02:13;;;;;;;11.35;3.72;;;15.80;99.90;;;;;;5016046;28;20117;-75
2021/08/26 05:04:39;;;;;;;13.43;3.90;;;15.10;99.90;;;;;;5015059;28;20033;-77
2021/08/26 05:07:05;;;;;;;16.08;4.05;;;15.10;99.90;;;;;;5012197;28;20030;-76
2021/08/26 05:09:30;;;;;;;17.15;4.40;;;15.10;99.90;;;;;;4994899;28;20034;-77
2021/08/26 05:11:58;;;;;;;11.60;4.32;;;15.10;99.90;;;;;;4997539;28;20040;-76
2021/08/26 05:14:24;;;;;;;14.68;4.05;;;15.10;99.90;;;;;;5002884;28;20432;-77
2021/08/26 05:16:49;;;;;;;12.10;4.03;;;15.20;99.90;;;;;;5014729;28;20026;-77
2021/08/26 05:19:15;;;;;;;17.58;3.88;;;15.10;99.90;;;;;;5015646;28;20477;-78
2021/08/26 05:21:40;;;;;;;16.13;3.97;;;15.20;99.90;;;;;;5016620;28;20093;-78
2021/08/26 05:24:06;;;;;;;11.95;3.30;;;15.20;99.90;;;;;;5015069;28;20034;-77
2021/08/26 05:26:32;;;;;;;11.75;3.05;;;15.20;99.90;;;;;;5015429;28;20112;-77
2021/08/26 05:28:57;;;;;;;13.80;3.65;;;15.20;99.90;;;;;;5015764;28;20063;-78
2021/08/26 05:31:23;;;;;;;15.65;3.88;;;15.20;99.90;;;;;;5014691;28;20025;-77
2021/08/26 05:33:48;;;;;;;13.10;3.30;;;15.20;99.90;;;;;;5015472;28;20025;-73
2021/08/26 05:36:15;;;;;;;17.40;3.83;;;15.30;99.90;;;;;;5015213;28;20105;-76
2021/08/26 05:38:41;;;;;;;14.10;3.33;;;15.30;99.90;;;;;;5006989;28;20037;-75
2021/08/26 05:41:06;;;;;;;11.48;3.25;;;15.30;99.90;;;;;;5014772;28;20026;-75
2021/08/26 05:43:32;;;;;;;19.25;4.00;;;15.40;99.90;;;;;;5015213;28;20030;-76
2021/08/26 05:45:58;;;;;;;17.73;4.00;;;15.40;99.90;;;;;;5014685;28;20022;-77
2021/08/26 05:48:23;;;;;;;13.32;3.28;;;15.40;99.90;;;;;;5014044;28;20048;-76
2021/08/26 05:50:49;;;;;;;15.45;4.05;;;15.50;99.90;;;;;;5014873;28;20018;-76
2021/08/26 05:53:14;;;;;;;13.13;2.83;;;15.50;99.90;;;;;;5014269;28;20026;-75
2021/08/26 05:55:40;;;;;;;15.43;3.50;;;15.60;99.90;;;;;;5014769;28;20065;-75
2021/08/26 05:58:05;;;;;;;14.82;2.40;;;15.60;99.90;;;;;;5015084;28;20033;-75
2021/08/26 06:00:31;;;;;;;15.98;2.67;;;15.60;99.90;;;;;;5013220;28;20018;-75
2021/08/26 06:02:57;;;;;;;8.02;2.33;;;15.60;99.90;;;;;;5015072;28;20034;-75
2021/08/26 06:05:22;;;;;;;13.02;2.85;;;15.60;99.90;;;;;;5014627;28;20036;-75
2021/08/26 06:07:48;;;;;;;8.52;2.55;;;15.60;99.90;;;;;;5013933;28;20022;-76
2021/08/26 06:10:14;;;;;;;9.50;2.10;;;15.70;99.90;;;;;;5014550;28;20029;-75
2021/08/26 06:12:41;;;;;;;10.05;1.92;;;15.70;99.90;;;;;;5014437;28;20058;-76
2021/08/26 06:15:09;;;;;;;9.63;2.50;;;15.70;99.90;;;;;;5013991;28;20026;-76
2021/08/26 06:17:34;;;;;;;9.68;1.65;;;15.70;99.90;;;;;;5014317;28;20037;-76
2021/08/26 06:20:01;;;;;;;12.18;2.50;;;15.80;99.90;;;;;;5013875;28;20026;-76
2021/08/26 06:22:27;;;;;;;7.75;1.85;;;15.80;99.90;;;;;;5013804;28;20394;-77
2021/08/26 06:24:52;;;;;;;10.73;2.58;;;15.90;99.90;;;;;;5014379;28;20030;-75
2021/08/26 06:27:20;;;;;;;11.70;2.25;;;15.90;99.90;;;;;;5014019;28;20053;-76
2021/08/26 06:29:46;;;;;;;13.40;2.42;;;16.00;99.90;;;;;;5013610;28;20747;-75
2021/08/26 06:32:11;;;;;;;16.90;2.55;;;16.00;99.90;;;;;;5014099;28;20053;-76
2021/08/26 06:34:37;;;;;;;14.25;2.97;;;16.00;99.90;;;;;;5013148;28;20045;-78
2021/08/26 06:37:03;;;;;;;11.98;2.70;;;16.00;99.90;;;;;;5014294;28;20084;-78
2021/08/26 06:39:28;;;;;;;7.18;2.13;;;16.00;99.90;;;;;;5013619;28;20423;-78
2021/08/26 06:41:55;;;;;;;14.35;2.35;;;16.00;99.90;;;;;;5014178;28;20037;-78
2021/08/26 06:44:21;;;;;;;9.73;1.75;;;16.10;99.90;;;;;;5014231;28;20041;-77
2021/08/26 06:46:47;;;;;;;7.18;2.22;;;16.10;99.90;;;;;;5013580;28;20061;-77
2021/08/26 06:49:12;;;;;;;11.85;2.00;;;16.10;99.90;;;;;;5013367;28;20022;-78
2021/08/26 06:51:38;;;;;;;8.10;2.22;;;16.20;99.90;;;;;;5013728;28;20117;-77
2021/08/26 06:54:03;;;;;;;10.57;1.90;;;16.20;99.90;;;;;;5013618;28;20032;-76
2021/08/26 06:56:29;;;;;;;9.93;2.33;;;16.20;99.90;;;;;;5012841;28;20113;-77
2021/08/26 06:58:54;;;;;;;7.47;2.28;;;16.30;99.90;;;;;;5014084;28;20038;-77
2021/08/26 07:01:20;;;;;;;8.32;2.20;;;16.40;99.90;;;;;;5013878;28;20501;-77
2021/08/26 07:03:45;;;;;;;10.18;2.35;;;16.70;99.90;;;;;;5012716;28;20471;-77
2021/08/26 07:06:14;;;;;;;12.68;2.90;;;16.60;99.90;;;;;;5013791;28;20032;-78
2021/08/26 07:08:40;;;;;;;11.75;1.98;;;16.70;99.90;;;;;;5013478;28;20026;-76
2021/08/26 07:11:05;;;;;;;9.40;2.20;;;16.80;99.90;;;;;;5012839;28;20079;-77
2021/08/26 07:13:31;;;;;;;8.38;2.20;;;16.80;99.90;;;;;;5012682;28;20037;-77
2021/08/26 07:15:56;;;;;;;7.50;1.92;;;16.80;99.90;;;;;;5013396;28;20052;-76
2021/08/26 07:18:24;;;;;;;8.00;1.80;;;16.90;99.90;;;;;;5013238;28;20022;-76
2021/08/26 07:20:50;;;;;;;10.32;1.85;;;16.90;99.90;;;;;;5012872;28;20037;-77
2021/08/26 07:23:16;;;;;;;12.73;3.10;;;17.00;99.90;;;;;;5012656;28;20038;-77
2021/08/26 07:25:42;;;;;;;7.68;1.88;;;17.00;99.90;;;;;;5013038;28;20029;-78
2021/08/26 07:28:08;;;;;;;6.07;1.42;;;17.00;99.90;;;;;;5013570;28;20026;-78
2021/08/26 07:30:34;;;;;;;4.53;1.42;;;17.00;99.90;;;;;;5013669;28;20051;-80
2021/08/26 07:33:03;;;;;;;3.53;1.63;;;17.10;99.90;;;;;;5013213;28;20056;-77
2021/08/26 07:35:29;;;;;;;11.30;1.58;;;17.20;99.90;;;;;;5013292;28;20030;-78
2021/08/26 07:37:54;;;;;;;3.92;1.40;;;17.30;99.90;;;;;;5012262;28;20073;-80
2021/08/26 07:40:20;;;;;;;10.10;1.83;;;17.30;99.90;;;;;;5015592;28;20022;-78
2021/08/26 07:42:45;;;;;;;5.57;1.38;;;17.40;99.90;;;;;;5013825;28;20572;-81
2021/08/26 07:45:11;;;;;;;8.27;2.38;;;17.30;99.90;;;;;;5013771;28;20022;-79
2021/08/26 07:47:37;;;;;;;12.88;1.90;;;17.30;99.90;;;;;;5013425;28;20520;-77
2021/08/26 07:50:04;;;;;;;5.50;1.75;;;17.20;99.90;;;;;;5013231;28;20528;-77
2021/08/26 07:52:31;;;;;;;12.50;2.55;;;17.20;99.90;;;;;;5012551;28;20072;-78
2021/08/26 07:54:57;;;;;;;14.05;2.85;;;17.20;99.90;;;;;;5013185;28;20030;-78
2021/08/26 07:57:22;;;;;;;11.30;1.77;;;17.10;99.90;;;;;;5012522;28;20029;-77
2021/08/26 07:59:48;;;;;;;8.68;2.28;;;17.00;99.90;;;;;;5012047;28;20062;-77
2021/08/26 08:02:14;;;;;;;12.55;2.20;;;17.10;99.90;;;;;;5012711;28;20121;-79
2021/08/26 08:04:40;;;;;;;8.05;1.80;;;17.10;99.90;;;;;;5012477;28;20393;-79
2021/08/26 08:07:06;;;;;;;6.60;1.58;;;17.20;99.90;;;;;;5012435;28;20026;-79
2021/08/26 08:09:33;;;;;;;6.57;1.85;;;17.30;99.90;;;;;;5012837;28;20022;-79
2021/08/26 08:11:59;;;;;;;6.25;1.58;;;17.30;99.90;;;;;;5012799;28;20022;-78
2021/08/26 08:14:25;;;;;;;7.10;2.75;;;17.50;99.90;;;;;;5012028;28;20029;-76
2021/08/26 08:16:51;;;;;;;6.80;1.90;;;17.90;99.90;;;;;;5012394;28;20026;-77
2021/08/26 08:19:18;;;;;;;7.43;1.92;;;17.60;99.90;;;;;;5012471;28;20033;-76
2021/08/26 08:21:43;;;;;;;9.00;2.17;;;17.70;99.90;;;;;;5011542;28;20585;-76
2021/08/26 08:24:09;;;;;;;8.80;1.63;;;17.60;99.90;;;;;;5011942;28;20112;-77
2021/08/26 08:26:34;;;;;;;5.18;1.23;;;17.50;99.90;;;;;;5011526;28;20030;-76
2021/08/26 08:29:00;;;;;;;3.70;1.35;;;17.30;99.90;;;;;;5012660;28;20026;-75
2021/08/26 08:31:26;;;;;;;12.23;1.58;;;17.20;99.90;;;;;;5012143;28;20065;-77
2021/08/26 08:33:51;;;;;;;9.80;1.58;;;17.10;99.90;;;;;;5011869;28;20037;-76
2021/08/26 08:36:19;;;;;;;4.68;1.33;;;17.20;99.90;;;;;;5012524;28;20097;-77
2021/08/26 08:38:45;;;;;;;8.10;2.08;;;17.20;99.90;;;;;;5012242;28;20026;-77
2021/08/26 08:41:16;;;;;;;4.82;1.48;;;17.30;99.90;;;;;;5011542;28;20043;-77
2021/08/26 08:43:42;;;;;;;3.78;1.58;;;17.20;99.90;;;;;;5012245;28;20041;-78
2021/08/26 08:46:08;;;;;;;6.57;1.40;;;17.20;99.90;;;;;;5012408;28;20018;-77
2021/08/26 08:48:38;;;;;;;7.40;1.70;;;17.30;99.90;;;;;;5010597;28;20049;-76
2021/08/26 08:51:04;;;;;;;8.63;1.65;;;17.40;99.90;;;;;;5012119;28;20022;-76
2021/08/26 08:53:30;;;;;;;7.40;1.70;;;17.40;99.90;;;;;;5012058;28;20022;-76
2021/08/26 08:55:56;;;;;;;9.60;1.00;;;17.60;99.90;;;;;;5009544;28;20025;-75
2021/08/26 08:58:25;;;;;;;8.55;1.88;;;17.80;99.90;;;;;;5013707;28;20033;-76
2021/08/26 09:00:51;;;;;;;5.88;1.88;;;17.80;99.90;;;;;;5012666;28;20032;-76
2021/08/26 09:03:17;;;;;;;5.93;1.30;;;17.80;99.90;;;;;;5012193;28;20116;-75
2021/08/26 09:05:55;;;;;;;5.60;1.30;;;17.80;99.90;;;;;;5012902;28;20061;-78
2021/08/26 09:08:27;;;;;;;7.05;1.63;;;17.60;99.90;;;;;;5013473;28;20486;-78
2021/08/26 09:10:54;;;;;;;8.70;1.60;;;17.60;99.90;;;;;;5011472;28;20022;-75
2021/08/26 09:13:33;;;;;;;2.60;1.40;;;17.60;99.90;;;;;;5012430;28;20482;-77
2021/08/26 09:15:59;;;;;;;6.93;1.77;;;17.60;99.90;;;;;;5012296;28;20057;-77
2021/08/26 09:18:26;;;;;;;13.00;1.83;;;17.50;99.90;;;;;;5012824;28;20026;-78
2021/08/26 09:20:58;;;;;;;7.00;1.90;;;17.50;99.90;;;;;;5012151;28;20529;-77
2021/08/26 09:23:29;;;;;;;14.88;1.92;;;17.30;99.90;;;;;;5011137;28;20052;-76
2021/08/26 09:26:13;;;;;;;5.20;1.70;;;17.30;99.90;;;;;;5012280;28;20022;-76
2021/08/26 09:28:39;;;;;;;7.07;2.33;;;17.20;99.90;;;;;;5003870;28;20407;-76
2021/08/26 09:31:17;;;;;;;6.88;1.85;;;17.00;99.90;;;;;;5019185;28;20014;-77
2021/08/26 09:33:55;;;;;;;6.85;1.80;;;17.00;99.90;;;;;;5008849;28;20026;-76
2021/08/26 09:36:27;;;;;;;3.38;1.48;;;17.00;99.90;;;;;;5018080;28;20022;-77
2021/08/26 09:39:01;;;;;;;9.27;2.08;;;17.10;99.90;;;;;;5008860;28;20033;-77
2021/08/26 09:41:42;;;;;;;8.85;2.28;;;17.10;99.90;;;;;;5018664;28;20044;-77
2021/08/26 09:44:11;;;;;;;6.30;1.38;;;17.20;99.90;;;;;;5018764;28;20041;-77
2021/08/26 09:46:37;;;;;;;6.68;1.92;;;17.30;99.90;;;;;;5021700;28;20576;-77
2021/08/26 09:49:03;;;;;;;4.40;1.52;;;17.50;99.90;;;;;;5024289;28;20069;-76
2021/08/26 09:51:29;;;;;;;4.93;1.50;;;17.60;99.90;;;;;;5019506;28;20029;-75
2021/08/26 09:53:55;;;;;;;9.95;2.30;;;17.70;99.90;;;;;;5018423;28;20026;-76
2021/08/26 09:56:21;;;;;;;6.63;2.17;;;17.90;99.90;;;;;;5014732;28;20026;-76
2021/08/26 09:58:53;;;;;;;9.68;2.47;;;18.10;99.90;;;;;;5015358;28;20036;-77
2021/08/26 10:01:23;;;;;;;4.28;1.80;;;18.30;99.90;;;;;;5015484;28;20030;-77
2021/08/26 10:03:50;;;;;;;3.65;1.70;;;18.30;99.90;;;;;;5014870;28;20113;-76
2021/08/26 10:06:17;;;;;;;9.52;2.60;;;18.50;99.90;;;;;;5014392;28;20466;-77
2021/08/26 10:08:48;;;;;;;6.45;2.25;;;18.60;99.90;;;;;;5014693;28;20509;-76
2021/08/26 10:11:20;;;;;;;8.85;3.20;;;18.70;99.90;;;;;;5015571;28;20213;-77
2021/08/26 10:13:49;;;;;;;6.10;2.15;;;18.70;99.90;;;;;;5014779;28;20060;-77
2021/08/26 10:16:16;;;;;;;7.22;2.10;;;18.70;99.90;;;;;;5014711;28;20018;-77
2021/08/26 10:18:42;;;;;;;7.28;2.63;;;18.70;99.90;;;;;;5014107;28;20034;-76
2021/08/26 10:21:10;;;;;;;7.65;2.55;;;18.60;99.90;;;;;;5011822;28;20029;-77
2021/08/26 10:23:38;;;;;;;5.00;2.03;;;18.70;99.90;;;;;;5013524;28;20045;-78
2021/08/26 10:26:07;;;;;;;8.80;2.30;;;18.80;99.90;;;;;;5014990;28;20104;-77
2021/08/26 10:28:35;;;;;;;7.00;2.85;;;18.90;99.90;;;;;;5015815;28;20034;-75
2021/08/26 10:31:35;;;;;;;10.35;2.80;;;18.90;99.90;;;;;;5015220;28;20341;-75
2021/08/26 10:34:21;;;;;;;8.63;2.53;;;19.00;99.90;;;;;;5014203;28;20026;-76
2021/08/26 10:36:58;;;;;;;10.38;3.30;;;18.90;99.90;;;;;;5009398;28;20054;-75
2021/08/26 10:39:37;;;;;;;9.55;2.42;;;18.70;99.90;;;;;;5015027;28;20022;-77
2021/08/26 10:42:21;;;;;;;11.57;3.65;;;18.70;99.90;;;;;;5014814;28;20034;-77
2021/08/26 10:45:02;;;;;;;10.50;3.13;;;18.90;99.90;;;;;;5015105;28;20386;-77
2021/08/26 10:47:46;;;;;;;;;;;19.00;99.90;;;;;;5002417;28;20053;-76
2021/08/26 10:50:18;;;;;;;15.52;3.92;;;18.90;99.90;;;;;;5015534;28;20000;-76
2021/08/26 10:53:13;;;;;;;15.98;4.68;;;18.70;99.90;;;;;;5014856;28;20371;-77
2021/08/26 10:55:43;;;;;;;15.32;3.53;;;18.70;99.90;;;;;;5013307;28;20030;-76
2021/08/26 10:58:20;;;;;;;10.43;3.95;;;18.50;99.90;;;;;;5015158;28;20022;-77
2021/08/26 11:00:51;;;;;;;18.45;3.60;;;18.30;99.90;;;;;;5014430;28;20459;-75
2021/08/26 11:03:34;;;;;;;15.63;4.32;;;18.20;99.90;;;;;;5013921;28;20046;-76
2021/08/26 11:06:22;;;;;;;11.35;3.63;;;18.00;99.90;;;;;;5005040;28;20022;-76
2021/08/26 11:09:14;;;;;;;14.35;3.85;;;17.90;99.90;;;;;;5013028;28;20029;-76
2021/08/26 11:11:45;;;;;;;12.98;4.03;;;17.80;99.90;;;;;;5013734;28;20022;-77
2021/08/26 11:14:23;;;;;;;13.68;3.80;;;17.70;99.90;;;;;;5014056;28;20077;-75
2021/08/26 11:16:51;;;;;;;14.55;3.78;;;17.70;99.90;;;;;;5013521;28;20026;-75
2021/08/26 11:19:17;;;;;;;17.52;4.22;;;17.90;99.90;;;;;;5013942;28;20061;-77
2021/08/26 11:21:43;;;;;;;14.43;3.85;;;18.10;99.90;;;;;;5013215;28;20058;-75
2021/08/26 11:24:10;;;;;;;13.55;3.70;;;18.30;99.90;;;;;;5012964;28;20061;-76
2021/08/26 11:27:04;;;;;;;11.38;3.35;;;18.50;99.90;;;;;;5013482;28;20109;-75
2021/08/26 11:29:34;;;;;;;17.30;4.10;;;18.60;99.90;;;;;;5010039;28;20022;-75
2021/08/26 11:32:03;;;;;;;17.08;4.32;;;18.70;99.90;;;;;;5013092;28;20029;-76
2021/08/26 11:34:43;;;;;;;14.57;4.38;;;18.80;99.90;;;;;;5012928;28;20018;-76
2021/08/26 11:37:15;;;;;;;16.13;3.33;;;18.80;99.90;;;;;;5012483;28;20082;-77
2021/08/26 11:39:44;;;;;;;10.38;3.10;;;18.70;99.90;;;;;;5012642;28;20038;-75
2021/08/26 11:42:18;;;;;;;12.60;4.00;;;18.50;99.90;;;;;;5013203;28;20026;-76
2021/08/26 11:44:44;;;;;;;11.40;3.58;;;17.90;99.90;;;;;;5008955;28;20737;-76
2021/08/26 11:47:10;;;;;;;12.77;3.67;;;17.50;99.90;;;;;;5012780;28;20048;-75
2021/08/26 11:49:41;;;;;;;10.88;3.72;;;17.40;99.90;;;;;;5012705;28;20509;-75
2021/08/26 11:52:09;;;;;;;9.90;3.50;;;17.30;99.90;;;;;;5012195;28;20026;-75
2021/08/26 11:54:53;;;;;;;16.25;4.00;;;17.30;99.90;;;;;;5012656;28;20033;-75
2021/08/26 11:57:20;;;;;;;11.35;3.28;;;17.40;99.90;;;;;;5013048;28;20097;-75
2021/08/26 11:59:46;;;;;;;10.60;3.50;;;17.50;99.90;;;;;;5011620;28;20030;-75
2021/08/26 12:02:25;;;;;;;13.35;3.78;;;17.70;99.90;;;;;;5012638;28;20036;-74
2021/08/26 12:04:51;;;;;;;17.27;4.05;;;18.00;99.90;;;;;;5012370;28;20053;-76
2021/08/26 12:07:29;;;;;;;22.33;4.00;;;18.30;99.90;;;;;;5012852;28;20382;-75
2021/08/26 12:10:07;;;;;;;10.82;2.72;;;18.60;99.90;;;;;;5013386;28;20038;-75
2021/08/26 12:12:33;;;;;;;11.02;2.58;;;18.80;99.90;;;;;;5012321;28;20029;-76
2021/08/26 12:14:58;;;;;;;13.45;3.30;;;18.80;99.90;;;;;;5015947;28;20125;-76
2021/08/26 12:17:24;;;;;;;9.27;2.85;;;18.80;99.90;;;;;;5015801;28;20534;-76
2021/08/26 12:19:52;;;;;;;12.55;2.80;;;18.90;99.90;;;;;;5014519;28;20025;-76
2021/08/26 12:22:22;;;;;;;9.98;3.13;;;19.00;99.90;;;;;;5011522;28;20022;-76
2021/08/26 12:24:59;;;;;;;20.10;3.97;;;19.20;99.90;;;;;;5012523;28;20030;-76
2021/08/26 12:27:29;;;;;;;17.73;2.95;;;19.20;99.90;;;;;;5011988;28;20030;-76
2021/08/26 12:29:58;;;;;;;8.20;2.70;;;19.30;99.90;;;;;;5012844;28;20034;-77
2021/08/26 12:32:36;;;;;;;9.55;3.25;;;19.50;99.90;;;;;;5012495;28;20493;-75
2021/08/26 12:35:25;;;;;;;13.82;3.35;;;19.70;99.90;;;;;;5011702;28;20548;-75
2021/08/26 12:37:52;;;;;;;10.20;3.58;;;19.80;99.90;;;;;;5011416;28;20021;-75
2021/08/26 12:40:17;;;;;;;14.05;3.72;;;19.90;99.90;;;;;;5011268;28;20022;-76
2021/08/26 12:43:00;;;;;;;9.50;3.15;;;19.80;99.90;;;;;;5011269;28;20041;-76
2021/08/26 12:45:27;;;;;;;10.10;3.25;;;19.80;99.90;;;;;;5010686;28;20418;-76
2021/08/26 12:47:52;;;;;;;15.45;3.33;;;19.70;99.90;;;;;;5011094;28;20049;-76
2021/08/26 12:50:29;;;;;;;11.93;3.55;;;19.50;99.90;;;;;;5012211;28;20026;-76